createdAt,value
2018-09-08T00:00:41.461Z,0.97
2018-09-08T00:03:10.413Z,1.20
2018-09-08T00:05:39.233Z,1.00
2018-09-08T00:08:08.230Z,1.00
2018-09-08T00:10:37.372Z,1.33
2018-09-08T00:13:06.268Z,0.97
2018-09-08T00:15:40.621Z,1.13
2018-09-08T00:18:14.427Z,0.90
2018-09-08T00:20:48.228Z,1.10
2018-09-08T00:23:22.157Z,1.30
2018-09-08T00:25:56.270Z,1.33
2018-09-08T00:28:39.591Z,1.00
2018-09-08T00:31:16.785Z,1.10
2018-09-08T00:33:45.949Z,1.33
2018-09-08T00:36:14.830Z,1.17
2018-09-08T00:38:43.841Z,0.90
2018-09-08T00:41:12.883Z,1.10
2018-09-08T00:43:41.828Z,1.17
2018-09-08T00:46:11.121Z,0.90
2018-09-08T00:48:39.931Z,1.00
2018-09-08T00:51:09.048Z,1.10
2018-09-08T00:53:38.331Z,1.10
2018-09-08T00:56:07.216Z,1.33
2018-09-08T00:58:36.090Z,1.07
2018-09-08T01:01:05.081Z,1.33
2018-09-08T01:03:34.072Z,1.03
2018-09-08T01:06:02.987Z,1.00
2018-09-08T01:08:31.913Z,1.20
2018-09-08T01:11:00.741Z,1.43
2018-09-08T01:13:29.643Z,1.23
2018-09-08T01:15:58.469Z,1.40
2018-09-08T01:18:27.420Z,1.10
2018-09-08T01:20:56.421Z,1.27
2018-09-08T01:23:30.055Z,1.23
2018-09-08T01:25:59.251Z,1.50
2018-09-08T01:28:28.099Z,1.50
2018-09-08T01:30:57.209Z,1.50
2018-09-08T01:33:26.153Z,1.60
2018-09-08T01:35:55.330Z,1.30
2018-09-08T01:38:24.283Z,1.30
2018-09-08T01:40:53.172Z,1.10
2018-09-08T01:43:22.393Z,1.60
2018-09-08T01:45:51.254Z,1.60
2018-09-08T01:48:24.365Z,1.67
2018-09-08T01:50:53.543Z,1.90
2018-09-08T01:53:22.615Z,1.53
2018-09-08T01:55:51.501Z,1.23
2018-09-08T01:58:20.439Z,1.63
2018-09-08T02:00:54.152Z,1.80
2018-09-08T02:03:23.200Z,2.00
2018-09-08T02:05:52.069Z,1.40
2018-09-08T02:08:26.084Z,1.50
2018-09-08T02:10:55.253Z,1.77
2018-09-08T02:13:24.167Z,2.43
2018-09-08T02:15:53.021Z,1.80
2018-09-08T02:18:21.838Z,1.97
2018-09-08T02:20:50.684Z,1.83
2018-09-08T02:23:25.639Z,1.53
2018-09-08T02:25:54.660Z,1.60
2018-09-08T02:28:23.716Z,1.90
2018-09-08T02:30:52.812Z,2.13
2018-09-08T02:33:21.642Z,1.80
2018-09-08T02:35:50.529Z,1.70
2018-09-08T02:38:19.390Z,1.73
2018-09-08T02:40:48.422Z,1.43
2018-09-08T02:43:20.620Z,1.87
2018-09-08T02:45:49.676Z,1.60
2018-09-08T02:48:18.645Z,2.00
2018-09-08T02:50:46.220Z,1.87
2018-09-08T02:53:14.723Z,1.57
2018-09-08T02:55:42.171Z,1.90
2018-09-08T02:58:09.718Z,1.90
2018-09-08T03:00:37.085Z,2.00
2018-09-08T03:03:04.738Z,1.30
2018-09-08T03:05:32.107Z,2.20
2018-09-08T03:07:59.897Z,1.90
2018-09-08T03:10:27.419Z,2.33
2018-09-08T03:12:55.186Z,1.67
2018-09-08T03:15:22.666Z,1.73
2018-09-08T03:17:55.278Z,1.90
2018-09-08T03:20:23.134Z,2.20
2018-09-08T03:22:50.748Z,2.23
2018-09-08T03:25:18.615Z,2.23
2018-09-08T03:27:46.288Z,2.13
2018-09-08T03:30:13.729Z,1.83
2018-09-08T03:32:41.802Z,2.30
2018-09-08T03:35:09.468Z,2.07
2018-09-08T03:37:42.662Z,1.70
2018-09-08T03:40:10.321Z,2.17
2018-09-08T03:42:37.914Z,2.53
2018-09-08T03:45:05.667Z,1.70
2018-09-08T03:47:33.411Z,1.80
2018-09-08T03:50:01.074Z,2.87
2018-09-08T03:52:37.869Z,2.13
2018-09-08T03:55:05.510Z,2.20
2018-09-08T03:57:33.073Z,2.10
2018-09-08T04:00:00.735Z,2.23
2018-09-08T04:02:29.421Z,1.47
2018-09-08T04:04:58.472Z,1.93
2018-09-08T04:07:27.484Z,2.10
2018-09-08T04:09:56.614Z,1.90
2018-09-08T04:12:27.752Z,3.20
2018-09-08T04:14:56.957Z,2.37
2018-09-08T04:17:25.985Z,3.00
2018-09-08T04:19:55.179Z,2.10
2018-09-08T04:22:28.599Z,2.37
2018-09-08T04:24:57.735Z,2.77
2018-09-08T04:27:26.977Z,3.10
2018-09-08T04:29:56.356Z,2.10
2018-09-08T04:32:25.388Z,3.10
2018-09-08T04:34:54.451Z,2.30
2018-09-08T04:37:23.669Z,2.73
2018-09-08T04:39:52.847Z,2.80
2018-09-08T04:42:37.956Z,3.50
2018-09-08T04:45:07.139Z,2.93
2018-09-08T04:47:36.501Z,2.50
2018-09-08T04:50:05.629Z,2.80
2018-09-08T04:52:34.715Z,4.10
2018-09-08T04:55:03.833Z,2.47
2018-09-08T04:57:33.022Z,3.00
2018-09-08T05:00:02.203Z,2.70
2018-09-08T05:02:34.866Z,2.27
2018-09-08T05:05:03.984Z,2.40
2018-09-08T05:07:33.115Z,2.73
2018-09-08T05:10:02.313Z,2.47
2018-09-08T05:12:31.409Z,2.73
2018-09-08T05:15:00.490Z,2.87
2018-09-08T05:17:29.515Z,2.20
2018-09-08T05:19:58.501Z,2.63
2018-09-08T05:22:27.885Z,2.73
2018-09-08T05:24:57.018Z,2.80
2018-09-08T05:27:26.370Z,3.10
2018-09-08T05:29:57.754Z,2.50
2018-09-08T05:32:26.862Z,3.27
2018-09-08T05:34:55.908Z,2.60
2018-09-08T05:37:25.019Z,2.90
2018-09-08T05:39:54.166Z,2.40
2018-09-08T05:42:23.417Z,2.80
2018-09-08T05:44:52.881Z,2.70
2018-09-08T05:47:22.333Z,2.03
2018-09-08T05:49:57.518Z,3.07
2018-09-08T05:52:26.672Z,2.83
2018-09-08T05:54:57.229Z,2.40
2018-09-08T05:57:39.005Z,2.43
2018-09-08T06:00:12.486Z,2.10
2018-09-08T06:05:35.821Z,2.87
2018-09-08T06:08:07.059Z,2.90
2018-09-08T06:10:36.339Z,2.97
2018-09-08T06:13:05.874Z,3.17
2018-09-08T06:15:38.664Z,3.23
2018-09-08T06:18:09.108Z,2.70
2018-09-08T06:20:38.082Z,2.63
2018-09-08T06:23:06.406Z,2.97
2018-09-08T06:25:36.426Z,3.33
2018-09-08T06:28:05.575Z,2.83
2018-09-08T06:30:35.877Z,3.20
2018-09-08T06:33:04.897Z,2.50
2018-09-08T06:35:37.489Z,3.23
2018-09-08T06:38:10.315Z,2.73
2018-09-08T06:40:39.455Z,3.10
2018-09-08T06:43:08.529Z,3.30
2018-09-08T06:45:38.440Z,2.83
2018-09-08T06:48:07.509Z,2.23
2018-09-08T06:50:37.673Z,2.67
2018-09-08T06:53:06.725Z,3.57
2018-09-08T06:55:35.589Z,2.53
2018-09-08T06:58:04.696Z,2.90
2018-09-08T07:00:33.666Z,2.20
2018-09-08T07:03:02.580Z,2.93
2018-09-08T07:05:31.553Z,2.50
2018-09-08T07:08:00.566Z,2.87
2018-09-08T07:10:29.713Z,2.27
2018-09-08T07:12:58.714Z,2.27
2018-09-08T07:15:28.066Z,2.40
2018-09-08T07:17:58.178Z,2.27
2018-09-08T07:20:27.197Z,2.20
2018-09-08T07:22:56.011Z,2.40
2018-09-08T07:25:25.076Z,2.30
2018-09-08T07:27:54.092Z,2.87
2018-09-08T07:30:23.037Z,2.50
2018-09-08T07:33:00.211Z,1.77
2018-09-08T07:35:29.224Z,2.40
2018-09-08T07:37:58.069Z,2.33
2018-09-08T07:40:26.967Z,1.70
2018-09-08T07:42:55.857Z,2.17
2018-09-08T07:45:24.829Z,2.00
2018-09-08T07:47:53.775Z,2.27
2018-09-08T07:50:22.741Z,2.67
2018-09-08T07:52:51.776Z,2.00
2018-09-08T07:55:20.615Z,2.03
2018-09-08T07:57:49.445Z,1.90
2018-09-08T08:00:18.513Z,1.90
2018-09-08T08:02:47.481Z,2.27
2018-09-08T08:05:16.436Z,1.73
2018-09-08T08:07:45.463Z,1.63
2018-09-08T08:10:14.336Z,1.50
2018-09-08T08:12:43.372Z,1.97
2018-09-08T08:15:12.508Z,1.60
2018-09-08T08:17:41.483Z,1.93
2018-09-08T08:20:10.496Z,1.90
2018-09-08T08:22:43.383Z,1.73
2018-09-08T08:25:12.758Z,1.73
2018-09-08T08:27:58.560Z,1.60
2018-09-08T08:30:27.865Z,1.33
2018-09-08T08:32:57.124Z,1.90
2018-09-08T08:35:26.676Z,1.47
2018-09-08T08:37:56.056Z,1.20
2018-09-08T08:40:25.079Z,2.10
2018-09-08T08:42:54.064Z,1.97
2018-09-08T08:45:22.962Z,1.83
2018-09-08T08:47:51.946Z,1.67
2018-09-08T08:50:31.888Z,1.50
2018-09-08T08:53:11.766Z,1.67
2018-09-08T08:55:40.672Z,1.60
2018-09-08T08:58:09.637Z,1.80
2018-09-08T09:00:40.805Z,1.57
2018-09-08T09:03:09.643Z,1.50
2018-09-08T09:05:38.562Z,1.43
2018-09-08T09:08:07.505Z,1.57
2018-09-08T09:10:36.373Z,1.43
2018-09-08T09:13:05.684Z,1.17
2018-09-08T09:15:35.250Z,1.10
2018-09-08T09:18:04.148Z,1.70
2018-09-08T09:20:44.087Z,1.43
2018-09-08T09:23:25.951Z,1.40
2018-09-08T09:25:55.194Z,1.53
2018-09-08T09:28:24.415Z,1.60
2018-09-08T09:30:53.739Z,1.23
2018-09-08T09:33:23.054Z,1.53
2018-09-08T09:35:53.205Z,1.30
2018-09-08T09:38:22.501Z,1.30
2018-09-08T09:40:51.610Z,1.37
2018-09-08T09:43:20.926Z,1.30
2018-09-08T09:45:50.325Z,1.20
2018-09-08T09:48:19.435Z,1.60
2018-09-08T09:50:48.689Z,1.23
2018-09-08T09:53:17.999Z,1.53
2018-09-08T09:55:47.225Z,1.70
2018-09-08T09:58:16.462Z,1.13
2018-09-08T10:00:50.995Z,1.20
2018-09-08T10:03:20.361Z,1.40
2018-09-08T10:05:49.617Z,1.57
2018-09-08T10:08:18.755Z,1.40
2018-09-08T10:10:48.058Z,1.27
2018-09-08T10:13:23.644Z,1.47
2018-09-08T10:15:52.744Z,1.50
2018-09-08T10:18:21.996Z,1.37
2018-09-08T10:20:51.102Z,1.37
2018-09-08T10:23:20.380Z,1.50
2018-09-08T10:25:49.475Z,1.47
2018-09-08T10:28:18.945Z,1.20
2018-09-08T10:30:48.178Z,1.10
2018-09-08T10:33:17.331Z,1.53
2018-09-08T10:35:46.818Z,1.20
2018-09-08T10:38:16.163Z,1.67
2018-09-08T10:40:45.477Z,1.40
2018-09-08T10:43:14.552Z,1.50
2018-09-08T10:45:43.865Z,1.37
2018-09-08T10:48:13.276Z,1.60
2018-09-08T10:50:42.510Z,1.37
2018-09-08T10:53:11.983Z,1.90
2018-09-08T10:55:41.076Z,1.40
2018-09-08T10:58:10.376Z,1.80
2018-09-08T11:00:40.158Z,1.70
2018-09-08T11:03:09.319Z,1.47
2018-09-08T11:05:38.586Z,1.67
2018-09-08T11:08:07.693Z,1.20
2018-09-08T11:10:36.897Z,1.37
2018-09-08T11:13:05.993Z,1.50
2018-09-08T11:15:35.244Z,1.57
2018-09-08T11:18:04.508Z,1.40
2018-09-08T11:20:33.780Z,1.50
2018-09-08T11:23:03.107Z,1.50
2018-09-08T11:25:32.197Z,1.20
2018-09-08T11:28:01.383Z,1.00
2018-09-08T11:30:34.586Z,1.60
2018-09-08T11:33:03.764Z,1.67
2018-09-08T11:35:32.926Z,1.40
2018-09-08T11:38:02.206Z,1.30
2018-09-08T11:40:31.296Z,1.47
2018-09-08T11:43:00.447Z,1.30
2018-09-08T11:45:29.620Z,1.00
2018-09-08T11:47:58.867Z,1.40
2018-09-08T11:50:27.847Z,1.37
2018-09-08T11:52:57.173Z,1.30
2018-09-08T11:55:26.452Z,1.43
2018-09-08T11:57:55.617Z,1.50
2018-09-08T12:00:24.859Z,1.33
2018-09-08T12:02:54.185Z,1.03
2018-09-08T12:05:23.213Z,1.30
2018-09-08T12:10:45.100Z,1.73
2018-09-08T12:13:14.208Z,1.23
2018-09-08T12:15:43.579Z,1.30
2018-09-08T12:18:12.706Z,1.40
2018-09-08T12:20:41.742Z,1.70
2018-09-08T12:23:14.651Z,1.27
2018-09-08T12:25:44.173Z,1.17
2018-09-08T12:28:13.382Z,0.97
2018-09-08T12:30:42.582Z,0.97
2018-09-08T12:33:11.711Z,1.50
2018-09-08T12:35:41.385Z,1.33
2018-09-08T12:38:11.559Z,1.40
2018-09-08T12:40:41.255Z,1.47
2018-09-08T12:43:10.694Z,1.23
2018-09-08T12:45:39.926Z,1.10
2018-09-08T12:48:09.209Z,1.50
2018-09-08T12:50:38.129Z,1.40
2018-09-08T12:53:07.712Z,1.37
2018-09-08T12:55:36.892Z,1.40
2018-09-08T12:58:23.483Z,1.60
2018-09-08T13:00:53.539Z,1.47
2018-09-08T13:03:22.608Z,1.30
2018-09-08T13:05:52.004Z,1.50
2018-09-08T13:08:21.122Z,1.87
2018-09-08T13:10:50.239Z,1.90
2018-09-08T13:13:19.392Z,1.53
2018-09-08T13:15:48.588Z,1.70
2018-09-08T13:18:27.202Z,1.53
2018-09-08T13:20:56.214Z,2.00
2018-09-08T13:23:25.410Z,2.10
2018-09-08T13:25:54.371Z,2.00
2018-09-08T13:28:23.295Z,1.80
2018-09-08T13:30:52.344Z,2.10
2018-09-08T13:33:21.260Z,3.50
2018-09-08T13:35:50.254Z,3.03
2018-09-08T13:38:19.198Z,4.17
2018-09-08T13:40:48.114Z,2.40
2018-09-08T13:43:17.256Z,1.63
2018-09-08T13:45:46.149Z,1.40
2018-09-08T13:48:15.417Z,1.40
2018-09-08T13:50:44.306Z,1.47
2018-09-08T13:53:13.166Z,1.50
2018-09-08T13:55:46.465Z,1.53
2018-09-08T13:58:16.449Z,1.07
2018-09-08T14:00:57.635Z,1.70
2018-09-08T14:03:26.680Z,1.17
2018-09-08T14:05:55.724Z,1.37
2018-09-08T14:08:25.072Z,1.43
2018-09-08T14:10:54.068Z,0.90
2018-09-08T14:13:24.015Z,1.60
2018-09-08T14:15:52.896Z,1.40
2018-09-08T14:18:21.758Z,1.23
2018-09-08T14:20:50.882Z,1.40
2018-09-08T14:23:19.641Z,1.43
2018-09-08T14:25:52.384Z,1.00
2018-09-08T14:28:21.421Z,1.77
2018-09-08T14:30:50.683Z,1.80
2018-09-08T14:33:20.144Z,1.40
2018-09-08T14:35:49.371Z,1.40
2018-09-08T14:38:18.425Z,1.60
2018-09-08T14:41:12.751Z,1.47
2018-09-08T14:43:44.213Z,1.70
2018-09-08T14:46:13.284Z,1.20
2018-09-08T14:48:42.239Z,1.53
2018-09-08T14:51:11.301Z,1.70
2018-09-08T14:53:40.125Z,1.20
2018-09-08T14:56:09.062Z,1.30
2018-09-08T14:58:38.044Z,1.17
2018-09-08T15:01:06.878Z,1.73
2018-09-08T15:03:36.089Z,1.60
2018-09-08T15:06:05.102Z,1.50
2018-09-08T15:08:34.135Z,1.33
2018-09-08T15:11:03.339Z,1.40
2018-09-08T15:13:32.080Z,1.30
2018-09-08T15:16:01.067Z,1.60
2018-09-08T15:18:30.059Z,1.47
2018-09-08T15:20:58.904Z,1.10
2018-09-08T15:23:28.117Z,1.53
2018-09-08T15:25:56.917Z,1.57
2018-09-08T15:28:25.649Z,1.30
2018-09-08T15:30:54.320Z,1.47
2018-09-08T15:33:23.040Z,1.43
2018-09-08T15:35:51.862Z,1.60
2018-09-08T15:38:20.642Z,1.73
2018-09-08T15:40:50.577Z,1.37
2018-09-08T15:43:25.245Z,1.50
2018-09-08T15:46:02.196Z,1.27
2018-09-08T15:48:38.202Z,1.60
2018-09-08T15:51:13.063Z,1.30
2018-09-08T15:53:51.168Z,1.07
2018-09-08T15:56:26.466Z,1.93
2018-09-08T15:59:01.374Z,1.20
2018-09-08T16:01:36.482Z,1.40
2018-09-08T16:04:11.707Z,1.50
2018-09-08T16:06:46.621Z,1.37
2018-09-08T16:09:23.501Z,1.03
2018-09-08T16:11:57.999Z,1.30
2018-09-08T16:14:33.362Z,1.60
2018-09-08T16:17:02.210Z,1.23
2018-09-08T16:19:30.985Z,1.20
2018-09-08T16:22:10.653Z,1.37
2018-09-08T16:24:39.484Z,1.10
2018-09-08T16:27:08.487Z,1.17
2018-09-08T16:29:37.449Z,1.30
2018-09-08T16:32:06.466Z,1.00
2018-09-08T16:34:36.043Z,1.27
2018-09-08T16:37:05.128Z,1.20
2018-09-08T16:39:34.620Z,1.13
2018-09-08T16:42:03.574Z,1.20
2018-09-08T16:44:32.505Z,1.20
2018-09-08T16:47:01.394Z,1.30
2018-09-08T16:49:30.483Z,1.07
2018-09-08T16:51:59.605Z,0.97
2018-09-08T16:54:28.468Z,1.17
2018-09-08T16:56:57.404Z,1.30
2018-09-08T16:59:26.376Z,1.10
2018-09-08T17:01:55.300Z,1.23
2018-09-08T17:04:24.295Z,1.20
2018-09-08T17:06:53.284Z,1.20
2018-09-08T17:09:22.300Z,0.90
2018-09-08T17:11:51.169Z,1.30
2018-09-08T17:14:20.196Z,1.33
2018-09-08T17:16:49.105Z,1.27
2018-09-08T17:19:18.060Z,1.20
2018-09-08T17:21:47.044Z,1.30
2018-09-08T17:24:16.001Z,1.10
2018-09-08T17:26:44.810Z,1.27
2018-09-08T17:29:14.006Z,1.40
2018-09-08T17:31:42.730Z,1.27
2018-09-08T17:34:11.668Z,1.30
2018-09-08T17:36:40.281Z,1.20
2018-09-08T17:39:11.326Z,1.00
2018-09-08T17:41:40.315Z,1.43
2018-09-08T17:44:09.378Z,1.27
2018-09-08T17:46:39.597Z,1.03
2018-09-08T17:49:08.582Z,1.37
2018-09-08T17:51:37.631Z,1.20
2018-09-08T17:54:10.624Z,1.47
2018-09-08T17:56:39.881Z,1.30
2018-09-08T17:59:08.760Z,1.37
2018-09-08T18:01:37.750Z,1.43
2018-09-08T18:04:06.735Z,1.40
2018-09-08T18:06:35.822Z,1.40
2018-09-08T18:09:05.333Z,1.03
2018-09-08T18:11:34.314Z,1.23
2018-09-08T18:14:03.804Z,1.37
2018-09-08T18:16:32.704Z,1.13
2018-09-08T18:19:01.559Z,1.20
2018-09-08T18:21:30.489Z,1.40
2018-09-08T18:23:59.385Z,1.30
2018-09-08T18:26:32.184Z,1.30
2018-09-08T18:29:01.231Z,1.37
2018-09-08T18:31:30.835Z,1.20
2018-09-08T18:33:59.798Z,1.50
2018-09-08T18:36:28.711Z,1.10
2018-09-08T18:38:57.643Z,1.27
2018-09-08T18:41:26.958Z,1.20
2018-09-08T18:43:56.406Z,1.40
2018-09-08T18:46:25.565Z,1.10
2018-09-08T18:48:55.236Z,1.33
2018-09-08T18:51:24.385Z,1.50
2018-09-08T18:53:53.457Z,1.30
2018-09-08T18:56:22.455Z,0.93
2018-09-08T18:58:55.365Z,1.53
2018-09-08T19:01:24.231Z,1.40
2018-09-08T19:03:53.215Z,1.40
2018-09-08T19:06:22.526Z,1.33
2018-09-08T19:08:51.560Z,1.40
2018-09-08T19:11:20.519Z,1.30
2018-09-08T19:13:49.572Z,1.60
2018-09-08T19:16:18.498Z,1.60
2018-09-08T19:18:48.018Z,1.70
2018-09-08T19:21:16.969Z,1.50
2018-09-08T19:23:46.007Z,1.43
2018-09-08T19:26:15.100Z,1.50
2018-09-08T19:28:45.790Z,1.43
2018-09-08T19:31:15.079Z,1.50
2018-09-08T19:33:44.027Z,1.40
2018-09-08T19:36:13.101Z,1.53
2018-09-08T19:38:41.997Z,1.90
2018-09-08T19:41:11.176Z,1.60
2018-09-08T19:43:40.852Z,1.57
2018-09-08T19:46:14.716Z,1.53
2018-09-08T19:48:48.260Z,2.00
2018-09-08T19:51:17.424Z,1.40
2018-09-08T19:53:51.495Z,1.50
2018-09-08T19:56:24.504Z,1.93
2018-09-08T19:58:57.371Z,2.27
2018-09-08T20:01:26.795Z,1.50
2018-09-08T20:03:56.960Z,1.30
2018-09-08T20:06:25.685Z,1.40
2018-09-08T20:08:55.331Z,1.43
2018-09-08T20:11:24.420Z,1.57
2018-09-08T20:13:53.732Z,1.47
2018-09-08T20:16:22.523Z,1.60
2018-09-08T20:18:51.450Z,1.50
2018-09-08T20:21:20.285Z,1.50
2018-09-08T20:23:49.295Z,1.40
2018-09-08T20:26:18.359Z,1.30
2018-09-08T20:28:47.518Z,1.50
2018-09-08T20:31:16.239Z,1.63
2018-09-08T20:33:44.895Z,1.40
2018-09-08T20:36:13.741Z,1.77
2018-09-08T20:38:42.658Z,1.50
2018-09-08T20:41:11.331Z,1.30
2018-09-08T20:43:40.206Z,1.30
2018-09-08T20:46:09.178Z,1.27
2018-09-08T20:48:38.115Z,1.40
2018-09-08T20:51:07.034Z,1.73
2018-09-08T20:53:36.191Z,1.70
2018-09-08T20:56:05.283Z,1.87
2018-09-08T20:58:34.308Z,1.73
2018-09-08T21:01:03.308Z,1.30
2018-09-08T21:03:32.366Z,1.40
2018-09-08T21:06:01.502Z,1.40
2018-09-08T21:08:35.466Z,2.17
2018-09-08T21:11:04.728Z,1.87
2018-09-08T21:13:33.880Z,1.60
2018-09-08T21:16:03.256Z,1.70
2018-09-08T21:18:35.596Z,1.90
2018-09-08T21:21:04.464Z,1.70
2018-09-08T21:23:33.507Z,1.70
2018-09-08T21:26:02.494Z,1.70
2018-09-08T21:28:31.738Z,2.00
2018-09-08T21:31:00.962Z,1.60
2018-09-08T21:33:29.809Z,1.50
2018-09-08T21:35:58.918Z,1.63
2018-09-08T21:38:29.925Z,1.63
2018-09-08T21:40:58.829Z,1.70
2018-09-08T21:43:27.749Z,1.73
2018-09-08T21:45:56.700Z,1.90
2018-09-08T21:48:25.736Z,1.73
2018-09-08T21:50:54.584Z,1.93
2018-09-08T21:53:27.508Z,2.20
2018-09-08T21:55:56.412Z,2.10
2018-09-08T21:58:25.525Z,2.30
2018-09-08T22:00:56.092Z,2.10
2018-09-08T22:03:26.866Z,2.20
2018-09-08T22:05:55.731Z,1.90
2018-09-08T22:08:24.693Z,1.93
2018-09-08T22:10:53.542Z,2.17
2018-09-08T22:13:22.673Z,1.80
2018-09-08T22:15:51.507Z,2.00
2018-09-08T22:18:21.010Z,1.80
2018-09-08T22:20:49.853Z,1.87
2018-09-08T22:23:18.726Z,2.00
2018-09-08T22:25:47.708Z,1.77
2018-09-08T22:28:16.544Z,1.83
2018-09-08T22:30:45.754Z,2.17
2018-09-08T22:33:14.643Z,1.77
2018-09-08T22:35:43.909Z,1.60
2018-09-08T22:38:13.062Z,1.80
2018-09-08T22:40:41.957Z,1.83
2018-09-08T22:43:11.246Z,1.70
2018-09-08T22:45:40.222Z,1.90
2018-09-08T22:48:09.215Z,2.67
2018-09-08T22:50:39.368Z,1.83
2018-09-08T22:53:09.379Z,1.70
2018-09-08T22:55:38.238Z,1.77
2018-09-08T22:58:07.975Z,1.70
2018-09-08T23:00:36.779Z,1.60
2018-09-08T23:03:05.779Z,1.60
2018-09-08T23:05:34.667Z,1.77
2018-09-08T23:08:03.863Z,2.23
2018-09-08T23:10:32.693Z,1.53
2018-09-08T23:13:01.520Z,1.63
2018-09-08T23:15:37.425Z,1.47
2018-09-08T23:18:06.560Z,1.80
2018-09-08T23:20:35.431Z,2.00
2018-09-08T23:23:04.451Z,1.97
2018-09-08T23:25:33.488Z,1.60
2018-09-08T23:28:02.391Z,1.97
2018-09-08T23:30:31.345Z,1.93
2018-09-08T23:33:00.395Z,1.70
2018-09-08T23:35:29.237Z,1.73
2018-09-08T23:37:58.126Z,2.03
2018-09-08T23:40:27.052Z,2.37
2018-09-08T23:42:56.239Z,1.97
2018-09-08T23:45:25.112Z,2.40
2018-09-08T23:47:54.065Z,1.77
2018-09-08T23:50:28.279Z,1.77
2018-09-08T23:52:57.216Z,1.97
2018-09-08T23:55:26.092Z,2.03
2018-09-08T23:57:55.067Z,5.47
